createdAt,value
2018-01-12T00:01:57.984Z,8.37
2018-01-12T00:04:24.086Z,6.23
2018-01-12T00:06:50.330Z,7.23
2018-01-12T00:09:16.413Z,11.47
2018-01-12T00:11:42.536Z,11.07
2018-01-12T00:14:08.784Z,18.67
2018-01-12T00:16:34.961Z,13.80
2018-01-12T00:19:01.050Z,12.70
2018-01-12T00:21:27.148Z,10.67
2018-01-12T00:23:53.268Z,10.03
2018-01-12T00:26:20.409Z,12.27
2018-01-12T00:28:46.478Z,13.60
2018-01-12T00:31:12.576Z,9.70
2018-01-12T00:33:38.788Z,13.77
2018-01-12T00:36:04.965Z,12.30
2018-01-12T00:38:31.057Z,13.07
2018-01-12T00:40:57.312Z,13.60
2018-01-12T00:43:23.505Z,12.77
2018-01-12T00:45:50.655Z,9.93
2018-01-12T00:48:16.816Z,9.63
2018-01-12T00:50:43.044Z,9.10
2018-01-12T00:53:09.205Z,10.13
2018-01-12T00:55:35.462Z,15.67
2018-01-12T00:58:01.737Z,13.30
2018-01-12T01:00:27.832Z,10.03
2018-01-12T01:02:53.976Z,13.93
2018-01-12T01:05:20.041Z,11.47
2018-01-12T01:07:46.136Z,8.33
2018-01-12T01:10:12.545Z,8.27
2018-01-12T01:12:38.745Z,11.37
2018-01-12T01:15:05.031Z,14.57
2018-01-12T01:17:31.201Z,10.93
2018-01-12T01:19:57.306Z,9.87
2018-01-12T01:22:23.510Z,13.83
2018-01-12T01:24:49.725Z,9.97
2018-01-12T01:27:15.970Z,6.37
2018-01-12T01:29:42.036Z,9.23
2018-01-12T01:32:08.266Z,8.97
2018-01-12T01:34:34.373Z,10.43
2018-01-12T01:37:00.512Z,9.53
2018-01-12T01:39:26.605Z,11.83
2018-01-12T01:41:52.697Z,18.03
2018-01-12T01:44:18.941Z,11.37
2018-01-12T01:46:45.197Z,14.07
2018-01-12T01:49:11.292Z,10.40
2018-01-12T01:51:37.440Z,11.67
2018-01-12T01:54:03.586Z,12.43
2018-01-12T01:56:29.800Z,10.33
2018-01-12T01:58:56.032Z,8.67
2018-01-12T02:01:22.157Z,10.23
2018-01-12T02:03:48.384Z,9.77
2018-01-12T02:06:15.489Z,12.10
2018-01-12T02:08:41.708Z,11.47
2018-01-12T02:11:07.900Z,9.80
2018-01-12T02:13:34.036Z,6.00
2018-01-12T02:16:00.188Z,4.83
2018-01-12T02:18:26.449Z,4.00
2018-01-12T02:20:52.565Z,7.30
2018-01-12T02:23:18.682Z,7.37
2018-01-12T02:25:45.841Z,10.47
2018-01-12T02:28:12.060Z,5.20
2018-01-12T02:30:38.154Z,4.73
2018-01-12T02:33:04.393Z,3.77
2018-01-12T02:35:31.520Z,7.40
2018-01-12T02:37:57.577Z,7.40
2018-01-12T02:40:23.762Z,2.73
2018-01-12T02:42:50.197Z,7.37
2018-01-12T02:45:16.422Z,2.13
2018-01-12T02:47:42.668Z,2.30
2018-01-12T02:50:08.821Z,2.30
2018-01-12T02:52:35.001Z,2.80
2018-01-12T02:55:01.092Z,5.37
2018-01-12T02:57:27.169Z,4.50
2018-01-12T02:59:53.273Z,2.20
2018-01-12T03:02:19.421Z,4.60
2018-01-12T03:04:45.525Z,4.30
2018-01-12T03:07:11.577Z,4.03
2018-01-12T03:09:37.664Z,3.47
2018-01-12T03:12:03.820Z,8.33
2018-01-12T03:14:29.913Z,5.90
2018-01-12T03:16:56.037Z,4.33
2018-01-12T03:19:22.124Z,4.50
2018-01-12T03:21:48.281Z,3.33
2018-01-12T03:24:14.373Z,5.00
2018-01-12T03:26:40.488Z,5.63
2018-01-12T03:29:06.705Z,2.70
2018-01-12T03:31:32.940Z,6.03
2018-01-12T03:33:59.146Z,5.43
2018-01-12T03:36:25.329Z,5.43
2018-01-12T03:38:51.468Z,5.40
2018-01-12T03:41:17.581Z,4.80
2018-01-12T03:43:43.754Z,4.70
2018-01-12T03:46:09.770Z,5.33
2018-01-12T03:48:36.029Z,4.83
2018-01-12T03:51:02.157Z,9.13
2018-01-12T03:53:28.321Z,8.43
2018-01-12T03:55:54.589Z,5.93
2018-01-12T03:58:20.845Z,4.67
2018-01-12T04:00:46.936Z,5.80
2018-01-12T04:03:13.065Z,7.40
2018-01-12T04:05:39.229Z,6.33
2018-01-12T04:08:05.428Z,10.07
2018-01-12T04:10:31.665Z,5.67
2018-01-12T04:12:57.874Z,8.03
2018-01-12T04:15:24.928Z,5.33
2018-01-12T04:17:51.101Z,5.77
2018-01-12T04:20:17.169Z,6.80
2018-01-12T04:22:43.325Z,6.87
2018-01-12T04:25:09.588Z,4.77
2018-01-12T04:27:35.782Z,7.00
2018-01-12T04:30:02.011Z,7.20
2018-01-12T04:32:28.244Z,4.10
2018-01-12T04:34:55.337Z,5.53
2018-01-12T04:37:21.549Z,5.10
2018-01-12T04:39:47.628Z,5.97
2018-01-12T04:42:13.901Z,4.73
2018-01-12T04:44:40.097Z,7.77
2018-01-12T04:47:06.321Z,5.17
2018-01-12T04:49:32.385Z,4.63
2018-01-12T04:51:58.573Z,5.20
2018-01-12T04:54:25.704Z,4.77
2018-01-12T04:56:51.958Z,6.00
2018-01-12T04:59:18.103Z,6.30
2018-01-12T05:01:44.177Z,7.73
2018-01-12T05:04:10.278Z,4.50
2018-01-12T05:06:36.484Z,4.90
2018-01-12T05:09:02.735Z,10.83
2018-01-12T05:11:28.961Z,4.87
2018-01-12T05:13:55.178Z,15.43
2018-01-12T05:16:21.322Z,8.67
2018-01-12T05:18:47.577Z,6.60
2018-01-12T05:21:13.780Z,6.30
2018-01-12T05:23:40.009Z,15.37
2018-01-12T05:26:06.257Z,9.07
2018-01-12T05:28:32.317Z,10.03
2018-01-12T05:30:58.573Z,7.27
2018-01-12T05:33:24.716Z,4.17
2018-01-12T05:35:50.857Z,11.23
2018-01-12T05:38:17.125Z,7.67
2018-01-12T05:40:43.406Z,4.90
2018-01-12T05:43:09.500Z,7.27
2018-01-12T05:45:35.732Z,8.97
2018-01-12T05:48:01.816Z,6.37
2018-01-12T05:50:27.985Z,7.03
2018-01-12T05:52:54.243Z,8.60
2018-01-12T05:55:20.341Z,7.40
2018-01-12T05:57:46.433Z,7.73
2018-01-12T06:00:12.573Z,9.43
2018-01-12T06:02:44.757Z,7.03
2018-01-12T06:05:16.740Z,5.47
2018-01-12T06:07:42.826Z,6.50
2018-01-12T06:10:09.053Z,6.30
2018-01-12T06:12:35.306Z,5.03
2018-01-12T06:15:01.401Z,7.97
2018-01-12T06:17:27.641Z,8.50
2018-01-12T06:19:53.773Z,10.03
2018-01-12T06:22:19.873Z,6.87
2018-01-12T06:24:46.010Z,5.30
2018-01-12T06:27:12.189Z,6.63
2018-01-12T06:29:38.293Z,8.07
2018-01-12T06:32:04.381Z,10.27
2018-01-12T06:34:30.485Z,9.80
2018-01-12T06:36:56.549Z,10.60
2018-01-12T06:39:22.792Z,10.63
2018-01-12T06:41:48.878Z,14.27
2018-01-12T06:44:15.037Z,13.27
2018-01-12T06:46:41.161Z,7.47
2018-01-12T06:49:07.359Z,7.77
2018-01-12T06:51:33.363Z,16.77
2018-01-12T06:53:59.513Z,10.77
2018-01-12T06:56:25.689Z,9.37
2018-01-12T06:58:51.916Z,11.63
2018-01-12T07:01:18.220Z,9.30
2018-01-12T07:03:44.422Z,9.93
2018-01-12T07:06:10.526Z,14.13
2018-01-12T07:08:36.724Z,11.40
2018-01-12T07:11:02.886Z,11.30
2018-01-12T07:13:29.113Z,13.03
2018-01-12T07:15:55.204Z,12.13
2018-01-12T07:18:21.509Z,7.63
2018-01-12T07:20:53.577Z,9.77
2018-01-12T07:23:25.521Z,15.50
2018-01-12T07:25:51.697Z,13.00
2018-01-12T07:28:17.955Z,12.03
2018-01-12T07:30:43.977Z,7.80
2018-01-12T07:33:10.169Z,8.57
2018-01-12T07:35:36.298Z,7.83
2018-01-12T07:38:02.644Z,11.70
2018-01-12T07:40:28.849Z,11.90
2018-01-12T07:42:55.011Z,10.60
2018-01-12T07:45:21.204Z,23.20
2018-01-12T07:47:47.389Z,10.87
2018-01-12T07:50:13.630Z,12.27
2018-01-12T07:52:45.920Z,8.53
2018-01-12T07:55:12.162Z,8.93
2018-01-12T07:57:38.369Z,9.20
2018-01-12T08:00:04.362Z,9.60
2018-01-12T08:02:36.525Z,11.97
2018-01-12T08:05:02.664Z,11.03
2018-01-12T08:07:28.893Z,10.83
2018-01-12T08:09:55.081Z,12.03
2018-01-12T08:12:21.296Z,8.43
2018-01-12T08:14:47.458Z,10.60
2018-01-12T08:17:13.645Z,9.43
2018-01-12T08:19:39.891Z,11.43
2018-01-12T08:22:06.053Z,8.00
2018-01-12T08:24:33.248Z,11.27
2018-01-12T08:26:59.602Z,5.80
2018-01-12T08:29:25.710Z,8.37
2018-01-12T08:31:51.857Z,10.37
2018-01-12T08:34:18.032Z,8.07
2018-01-12T08:36:44.121Z,7.13
2018-01-12T08:39:10.288Z,8.47
2018-01-12T08:41:36.382Z,14.77
2018-01-12T08:44:03.532Z,19.90
2018-01-12T08:46:29.737Z,12.93
2018-01-12T08:48:55.846Z,13.40
2018-01-12T08:51:22.020Z,10.80
2018-01-12T08:53:48.173Z,9.70
2018-01-12T08:56:14.401Z,8.97
2018-01-12T08:58:40.553Z,6.07
2018-01-12T09:01:06.715Z,11.20
2018-01-12T09:03:32.945Z,13.10
2018-01-12T09:05:59.560Z,11.00
2018-01-12T09:08:25.698Z,11.60
2018-01-12T09:10:51.822Z,10.97
2018-01-12T09:13:37.745Z,14.50
2018-01-12T09:16:05.825Z,15.23
2018-01-12T09:18:31.972Z,12.43
2018-01-12T09:20:58.137Z,13.43
2018-01-12T09:23:28.271Z,13.43
2018-01-12T09:25:54.503Z,12.40
2018-01-12T09:28:20.750Z,10.00
2018-01-12T09:30:46.897Z,13.20
2018-01-12T09:33:13.116Z,13.57
2018-01-12T09:35:51.509Z,6.00
2018-01-12T09:38:19.668Z,11.93
2018-01-12T09:40:46.013Z,6.93
2018-01-12T09:43:12.172Z,21.00
2018-01-12T09:48:25.762Z,4.10
2018-01-12T09:50:51.978Z,10.03
2018-01-12T09:53:18.220Z,12.50
2018-01-12T10:04:12.440Z,9.67
2018-01-12T10:06:38.608Z,13.40
2018-01-12T10:09:04.791Z,8.63
2018-01-12T10:11:30.952Z,9.67
2018-01-12T10:30:47.696Z,19.73
2018-01-12T10:33:16.607Z,21.80
2018-01-12T10:35:48.709Z,14.20
2018-01-12T10:38:14.965Z,38.73
2018-01-12T10:40:47.121Z,34.57
2018-01-12T10:43:13.229Z,22.23
2018-01-12T10:48:41.860Z,16.53
2018-01-12T10:51:13.092Z,25.07
2018-01-12T10:56:30.675Z,13.73
2018-01-12T10:58:56.837Z,15.73
2018-01-12T11:01:23.117Z,16.20
2018-01-12T11:04:07.204Z,25.70
2018-01-12T11:06:33.318Z,17.23
2018-01-12T11:09:00.045Z,17.83
2018-01-12T11:11:26.284Z,16.70
2018-01-12T11:27:54.333Z,14.10
2018-01-12T11:30:21.105Z,16.43
2018-01-12T11:32:47.174Z,16.57
2018-01-12T11:37:58.953Z,12.93
2018-01-12T11:40:25.126Z,13.87
2018-01-12T11:42:51.279Z,18.67
2018-01-12T11:56:33.161Z,22.87
2018-01-12T11:58:59.372Z,15.37
2018-01-12T12:01:25.482Z,20.07
2018-01-12T12:17:55.766Z,16.97
2018-01-12T12:20:22.410Z,19.30
2018-01-12T12:22:48.510Z,24.00
2018-01-12T12:33:38.393Z,21.40
2018-01-12T12:36:04.832Z,15.73
2018-01-12T12:38:31.041Z,20.10
2018-01-12T12:40:57.265Z,12.93
2018-01-12T12:43:23.392Z,13.80
2018-01-12T12:45:49.629Z,16.07
2018-01-12T12:48:16.004Z,14.70
2018-01-12T12:50:42.102Z,15.20
2018-01-12T12:53:11.760Z,17.20
2018-01-12T12:55:37.968Z,11.87
2018-01-12T12:58:04.117Z,12.37
2018-01-12T13:00:30.741Z,16.97
2018-01-12T13:02:56.903Z,17.30
2018-01-12T13:05:23.121Z,16.37
2018-01-12T13:07:49.308Z,21.30
2018-01-12T13:10:15.380Z,16.17
2018-01-12T13:12:41.537Z,15.90
2018-01-12T13:17:59.967Z,19.97
2018-01-12T13:20:26.209Z,20.70
2018-01-12T13:22:52.445Z,21.17
2018-01-12T13:25:18.581Z,16.93
2018-01-12T13:27:44.670Z,18.33
2018-01-12T13:30:10.733Z,22.67
2018-01-12T13:32:37.005Z,34.47
2018-01-12T13:35:13.841Z,35.13
2018-01-12T13:37:40.070Z,25.13
2018-01-12T13:40:06.297Z,19.47
2018-01-12T13:42:32.396Z,16.97
2018-01-12T13:48:00.545Z,15.47
2018-01-12T13:50:26.753Z,16.93
2018-01-12T13:52:52.820Z,19.80
2018-01-12T13:55:19.029Z,16.93
2018-01-12T13:57:45.248Z,19.10
2018-01-12T14:00:11.452Z,15.33
2018-01-12T14:02:37.540Z,15.47
2018-01-12T14:16:04.442Z,29.03
2018-01-12T14:18:30.609Z,26.70
2018-01-12T14:20:56.744Z,22.73
2018-01-12T14:23:22.910Z,23.40
2018-01-12T14:25:49.104Z,29.70
2018-01-12T14:28:15.332Z,30.70
2018-01-12T14:30:41.573Z,17.30
2018-01-12T14:33:07.748Z,17.63
2018-01-12T14:35:33.864Z,26.10
2018-01-12T14:38:00.116Z,27.73
2018-01-12T14:40:26.365Z,36.83
2018-01-12T14:42:52.592Z,25.33
2018-01-12T14:45:18.780Z,28.53
2018-01-12T14:47:45.041Z,29.20
2018-01-12T14:50:11.221Z,26.17
2018-01-12T14:52:37.453Z,22.70
2018-01-12T14:55:03.658Z,26.37
2018-01-12T14:57:29.889Z,27.53
2018-01-12T14:59:55.996Z,20.73
2018-01-12T15:02:22.224Z,20.10
2018-01-12T15:04:48.437Z,22.47
2018-01-12T15:07:14.645Z,17.93
2018-01-12T15:09:40.846Z,31.67
2018-01-12T15:12:06.980Z,25.77
2018-01-12T15:14:33.216Z,19.47
2018-01-12T15:16:59.361Z,24.27
2018-01-12T15:19:25.578Z,16.87
2018-01-12T15:21:51.736Z,20.40
2018-01-12T15:24:17.996Z,17.33
2018-01-12T15:26:44.236Z,24.80
2018-01-12T15:29:10.396Z,16.83
2018-01-12T15:31:36.589Z,25.77
2018-01-12T15:34:03.764Z,23.47
2018-01-12T15:36:29.884Z,20.70
2018-01-12T15:38:56.024Z,22.60
2018-01-12T15:41:22.144Z,30.67
2018-01-12T15:43:48.292Z,25.83
2018-01-12T15:46:14.429Z,26.23
2018-01-12T15:48:40.528Z,30.37
2018-01-12T15:51:06.802Z,26.77
2018-01-12T15:53:33.016Z,23.43
2018-01-12T15:55:59.252Z,23.23
2018-01-12T15:58:25.312Z,22.77
2018-01-12T16:00:51.472Z,23.50
2018-01-12T16:03:17.681Z,29.67
2018-01-12T16:05:43.904Z,21.03
2018-01-12T16:08:10.133Z,26.77
2018-01-12T16:10:36.302Z,19.10
2018-01-12T16:13:02.541Z,22.70
2018-01-12T16:15:28.647Z,22.53
2018-01-12T16:17:54.758Z,15.40
2018-01-12T16:20:20.942Z,25.23
2018-01-12T16:22:47.144Z,17.50
2018-01-12T16:25:13.361Z,15.60
2018-01-12T16:27:39.577Z,15.83
2018-01-12T16:30:05.665Z,22.90
2018-01-12T16:32:31.772Z,22.30
2018-01-12T16:34:57.954Z,39.70
2018-01-12T16:37:24.131Z,39.80
2018-01-12T16:39:50.282Z,20.00
2018-01-12T16:42:16.480Z,22.53
2018-01-12T16:44:42.557Z,21.13
2018-01-12T16:47:08.738Z,18.10
2018-01-12T16:49:34.969Z,25.30
2018-01-12T16:52:01.189Z,20.67
2018-01-12T16:54:27.442Z,16.20
2018-01-12T16:56:53.586Z,17.37
2018-01-12T16:59:19.759Z,14.83
2018-01-12T17:01:45.893Z,14.93
2018-01-12T17:04:12.116Z,15.33
2018-01-12T17:06:38.336Z,15.73
2018-01-12T17:09:04.408Z,12.70
2018-01-12T17:11:30.660Z,14.33
2018-01-12T17:13:57.892Z,12.90
2018-01-12T17:16:24.117Z,14.63
2018-01-12T17:18:50.264Z,12.70
2018-01-12T17:21:16.489Z,9.73
2018-01-12T17:23:43.716Z,10.53
2018-01-12T17:26:09.861Z,14.77
2018-01-12T17:28:36.023Z,14.07
2018-01-12T17:31:02.326Z,10.73
2018-01-12T17:33:29.297Z,14.10
2018-01-12T17:35:55.529Z,18.67
2018-01-12T17:38:21.721Z,19.73
2018-01-12T17:40:47.902Z,12.43
2018-01-12T17:43:13.929Z,13.27
2018-01-12T17:45:40.985Z,15.27
2018-01-12T17:48:07.147Z,16.27
2018-01-12T17:50:33.501Z,11.17
2018-01-12T17:52:59.680Z,18.33
2018-01-12T17:55:25.886Z,13.50
2018-01-12T17:57:52.104Z,10.03
2018-01-12T18:00:18.360Z,13.67
2018-01-12T18:02:44.601Z,12.63
2018-01-12T18:05:10.752Z,12.63
2018-01-12T18:07:36.895Z,14.43
2018-01-12T18:10:03.158Z,14.87
2018-01-12T18:12:29.335Z,15.77
2018-01-12T18:14:55.489Z,15.47
2018-01-12T18:17:21.697Z,14.77
2018-01-12T18:19:47.961Z,14.03
2018-01-12T18:22:14.070Z,16.23
2018-01-12T18:24:40.245Z,18.60
2018-01-12T18:27:06.386Z,12.83
2018-01-12T18:29:32.532Z,10.47
2018-01-12T18:31:58.684Z,14.83
2018-01-12T18:34:24.905Z,19.10
2018-01-12T18:36:51.005Z,13.53
2018-01-12T18:39:17.146Z,15.97
2018-01-12T18:41:43.405Z,16.43
2018-01-12T18:44:09.725Z,10.37
2018-01-12T18:46:50.704Z,14.27
2018-01-12T18:49:17.665Z,11.17
2018-01-12T18:51:43.805Z,12.23
2018-01-12T18:54:10.009Z,18.17
2018-01-12T18:56:36.185Z,8.20
2018-01-12T18:59:02.276Z,12.47
2018-01-12T19:01:28.538Z,12.63
2018-01-12T19:03:55.737Z,11.67
2018-01-12T19:06:21.875Z,17.33
2018-01-12T19:08:48.121Z,14.70
2018-01-12T19:11:14.306Z,18.00
2018-01-12T19:13:40.469Z,15.10
2018-01-12T19:16:06.640Z,15.73
2018-01-12T19:18:32.914Z,15.80
2018-01-12T19:20:59.052Z,13.77
2018-01-12T19:23:25.142Z,17.73
2018-01-12T19:25:51.306Z,11.17
2018-01-12T19:28:17.410Z,13.50
2018-01-12T19:30:43.478Z,15.77
2018-01-12T19:33:09.654Z,14.73
2018-01-12T19:35:36.072Z,15.83
2018-01-12T19:38:02.249Z,13.70
2018-01-12T19:40:28.321Z,12.37
2018-01-12T19:42:54.538Z,10.37
2018-01-12T19:45:20.676Z,9.43
2018-01-12T19:47:46.874Z,8.83
2018-01-12T19:50:13.090Z,12.70
2018-01-12T19:52:39.305Z,9.80
2018-01-12T19:55:05.326Z,13.10
2018-01-12T19:57:31.758Z,14.70
2018-01-12T19:59:57.929Z,11.17
2018-01-12T20:02:24.141Z,11.47
2018-01-12T20:04:50.290Z,6.83
2018-01-12T20:07:16.530Z,12.43
2018-01-12T20:09:42.716Z,9.07
2018-01-12T20:12:08.853Z,14.67
2018-01-12T20:14:35.073Z,14.77
2018-01-12T20:17:01.221Z,13.63
2018-01-12T20:19:27.463Z,17.00
2018-01-12T20:21:53.514Z,10.33
2018-01-12T20:24:19.649Z,6.93
2018-01-12T20:26:45.857Z,7.60
2018-01-12T20:29:12.061Z,10.10
2018-01-12T20:31:38.195Z,11.07
2018-01-12T20:34:05.212Z,9.57
2018-01-12T20:36:31.305Z,10.73
2018-01-12T20:38:57.617Z,12.57
2018-01-12T20:41:23.700Z,9.13
2018-01-12T20:43:50.912Z,10.70
2018-01-12T20:46:17.032Z,10.23
2018-01-12T20:48:43.208Z,10.10
2018-01-12T20:51:10.256Z,8.73
2018-01-12T20:53:36.351Z,9.13
2018-01-12T20:56:02.558Z,9.20
2018-01-12T20:58:28.792Z,7.00
2018-01-12T21:00:54.969Z,11.23
2018-01-12T21:03:21.076Z,10.33
2018-01-12T21:05:47.238Z,9.23
2018-01-12T21:08:13.426Z,13.73
2018-01-12T21:10:39.488Z,9.70
2018-01-12T21:13:05.692Z,8.87
2018-01-12T21:15:31.845Z,9.07
2018-01-12T21:17:58.091Z,13.33
2018-01-12T21:20:24.196Z,10.03
2018-01-12T21:22:50.359Z,10.83
2018-01-12T21:25:16.509Z,13.53
2018-01-12T21:27:42.594Z,12.30
2018-01-12T21:30:08.797Z,7.87
2018-01-12T21:32:34.908Z,6.80
2018-01-12T21:35:01.042Z,12.60
2018-01-12T21:37:27.129Z,8.90
2018-01-12T21:39:53.241Z,7.83
2018-01-12T21:42:19.392Z,11.07
2018-01-12T21:44:45.637Z,11.60
2018-01-12T21:47:11.859Z,12.60
2018-01-12T21:49:38.042Z,13.07
2018-01-12T21:52:04.245Z,10.27
2018-01-12T21:54:30.437Z,10.60
2018-01-12T21:56:56.632Z,10.70
2018-01-12T21:59:22.796Z,10.17
2018-01-12T22:01:49.980Z,12.57
2018-01-12T22:04:16.060Z,9.83
2018-01-12T22:06:42.245Z,7.83
2018-01-12T22:09:08.630Z,7.73
2018-01-12T22:11:34.729Z,10.23
2018-01-12T22:14:00.950Z,11.87
2018-01-12T22:16:27.006Z,12.47
2018-01-12T22:18:53.110Z,13.63
2018-01-12T22:21:19.395Z,8.03
2018-01-12T22:23:46.509Z,12.97
2018-01-12T22:26:12.701Z,9.90
2018-01-12T22:28:38.877Z,8.13
2018-01-12T22:31:05.096Z,7.93
2018-01-12T22:33:32.148Z,9.17
2018-01-12T22:35:58.373Z,10.50
2018-01-12T22:38:24.497Z,18.93
2018-01-12T22:40:50.569Z,13.63
2018-01-12T22:43:17.762Z,10.43
2018-01-12T22:45:43.987Z,11.23
2018-01-12T22:48:10.125Z,10.87
2018-01-12T22:50:36.460Z,10.00
2018-01-12T22:53:03.583Z,7.73
2018-01-12T22:55:29.817Z,14.10
2018-01-12T22:57:55.972Z,14.53
2018-01-12T23:00:22.184Z,11.23
2018-01-12T23:02:48.421Z,10.37
2018-01-12T23:05:14.652Z,13.00
2018-01-12T23:07:40.852Z,9.10
2018-01-12T23:10:07.017Z,10.83
2018-01-12T23:12:34.157Z,12.80
2018-01-12T23:15:00.219Z,8.07
2018-01-12T23:17:26.481Z,12.03
2018-01-12T23:19:52.717Z,11.60
2018-01-12T23:22:22.107Z,9.60
2018-01-12T23:24:48.589Z,12.97
2018-01-12T23:27:14.873Z,10.83
2018-01-12T23:29:41.046Z,10.60
2018-01-12T23:32:21.936Z,8.43
2018-01-12T23:34:48.132Z,11.23
2018-01-12T23:37:14.262Z,12.77
2018-01-12T23:39:40.489Z,10.27
2018-01-12T23:58:45.833Z,10.90
